Time;durP1;ratioP1;P1;durP2;ratioP2;P2;SDS_P1;SDS_P2;PMS_P1;PMS_P2;Temp;Humidity;BMP_temperature;BMP_pressure;BME280_temperature;BME280_humidity;BME280_pressure;Samples;Min_cycle;Max_cycle;Signal;HPM_P1;HPM_P2
2022/10/28 00:00:41;;;;;;;9.85;6.53;;;;;;;12.57;100.00;101754.00;2090064;28;20042;-74
2022/10/28 00:01:43;;;;;;;12.05;6.93;;;;;;;12.57;100.00;101755.81;2089643;28;20891;-75
2022/10/28 00:02:44;;;;;;;8.00;5.70;;;;;;;12.55;100.00;101761.19;2088716;28;37088;-75
2022/10/28 00:03:52;;;;;;;11.30;6.18;;;;;;;12.52;100.00;101753.19;2089031;28;33536;-75
2022/10/28 00:04:54;;;;;;;10.98;5.95;;;;;;;12.49;100.00;101757.72;2089338;28;28817;-75
2022/10/28 00:06:15;;;;;;;7.65;5.55;;;;;;;12.47;100.00;101755.09;2089110;28;30011;-74
2022/10/28 00:07:17;;;;;;;9.32;6.10;;;;;;;12.46;100.00;101756.00;2089048;28;31638;-75
2022/10/28 00:08:19;;;;;;;13.82;6.88;;;;;;;12.42;100.00;101746.22;2087808;28;40968;-75
2022/10/28 00:09:23;;;;;;;10.73;6.60;;;;;;;12.45;100.00;101748.84;2088829;28;20783;-75
2022/10/28 00:10:25;;;;;;;14.30;7.07;;;;;;;12.49;100.00;101750.59;2088897;28;38298;-75
2022/10/28 00:11:30;;;;;;;18.00;9.13;;;;;;;12.53;100.00;101740.66;2088839;28;36030;-75
2022/10/28 00:12:36;;;;;;;14.00;8.05;;;;;;;12.53;100.00;101741.53;2089653;28;20041;-75
2022/10/28 00:13:39;;;;;;;12.38;7.45;;;;;;;12.52;100.00;101749.63;2088894;28;38896;-75
2022/10/28 00:14:42;;;;;;;13.30;7.57;;;;;;;12.53;100.00;101746.91;2089074;28;28750;-74
2022/10/28 00:15:44;;;;;;;11.75;6.88;;;;;;;12.52;100.00;101747.81;2088533;28;37003;-75
2022/10/28 00:16:46;;;;;;;9.70;6.90;;;;;;;12.52;100.00;101745.13;2088979;28;38679;-75
2022/10/28 00:17:47;;;;;;;10.25;6.35;;;;;;;12.51;100.00;101751.44;2089503;28;35324;-75
2022/10/28 00:18:52;;;;;;;13.65;6.38;;;;;;;12.50;100.00;101741.59;2088993;28;37816;-75
2022/10/28 00:19:54;;;;;;;12.20;7.05;;;;;;;12.51;100.00;101754.13;2089788;28;36557;-76
2022/10/28 00:21:07;;;;;;;13.13;7.55;;;;;;;12.51;100.00;101750.56;2089681;28;28410;-75
2022/10/28 00:22:08;;;;;;;13.32;7.20;;;;;;;12.54;100.00;101739.72;2089197;28;36109;-75
2022/10/28 00:23:10;;;;;;;14.65;8.65;;;;;;;12.54;100.00;101743.31;2090050;28;21132;-76
2022/10/28 00:24:13;;;;;;;13.50;8.43;;;;;;;12.55;100.00;101738.84;2088756;28;35634;-76
2022/10/28 00:25:15;;;;;;;15.20;8.50;;;;;;;12.57;100.00;101742.38;2089006;28;36218;-75
2022/10/28 00:26:23;;;;;;;14.40;8.88;;;;;;;12.58;100.00;101736.09;2088523;28;38211;-75
2022/10/28 00:27:25;;;;;;;11.63;8.95;;;;;;;12.61;100.00;101736.03;2089508;28;26484;-75
2022/10/28 00:28:27;;;;;;;16.45;8.90;;;;;;;12.64;100.00;101741.34;2089105;28;20038;-75
2022/10/28 00:29:32;;;;;;;14.90;8.13;;;;;;;12.67;100.00;101726.94;2089095;28;20992;-75
2022/10/28 00:30:33;;;;;;;15.60;8.73;;;;;;;12.68;100.00;101726.06;2088732;28;34183;-75
2022/10/28 00:31:38;;;;;;;16.73;9.23;;;;;;;12.69;100.00;101727.84;2088992;28;33683;-75
2022/10/28 00:32:40;;;;;;;14.18;8.90;;;;;;;12.71;100.00;101729.56;2087662;28;38365;-75
2022/10/28 00:33:42;;;;;;;14.82;8.68;;;;;;;12.73;100.00;101726.84;2088796;28;20026;-75
2022/10/28 00:34:44;;;;;;;12.77;7.97;;;;;;;12.74;100.00;101728.59;2088580;28;34347;-75
2022/10/28 00:35:45;;;;;;;13.82;8.13;;;;;;;12.74;100.00;101717.84;2088847;28;35352;-75
2022/10/28 00:36:48;;;;;;;12.15;7.70;;;;;;;12.77;100.00;101718.69;2088551;28;36193;-75
2022/10/28 00:37:52;;;;;;;15.48;8.32;;;;;;;12.82;100.00;101728.47;2089027;28;34013;-75
2022/10/28 00:38:57;;;;;;;15.02;8.55;;;;;;;12.83;100.00;101723.09;2089058;28;20036;-75
2022/10/28 00:39:59;;;;;;;15.57;9.70;;;;;;;12.87;100.00;101719.41;2088609;28;32403;-75
2022/10/28 00:41:00;;;;;;;19.42;9.23;;;;;;;12.90;100.00;101716.66;2088718;28;34096;-74
2022/10/28 00:42:03;;;;;;;18.17;9.32;;;;;;;12.91;100.00;101710.34;2087884;28;32735;-75
2022/10/28 00:43:04;;;;;;;19.23;9.68;;;;;;;12.93;100.00;101705.84;2088789;28;35987;-75
2022/10/28 00:44:47;;;;;;;13.50;7.72;;;;;;;12.95;100.00;101714.75;2089914;28;20052;-75
2022/10/28 00:45:49;;;;;;;18.27;7.82;;;;;;;12.95;100.00;101701.31;2088729;28;33731;-76
2022/10/28 00:46:54;;;;;;;15.23;8.60;;;;;;;12.95;100.00;101708.50;2089466;28;20048;-75
2022/10/28 00:48:01;;;;;;;11.43;7.88;;;;;;;12.94;100.00;101704.94;2088999;28;29932;-75
2022/10/28 00:49:13;;;;;;;17.27;8.40;;;;;;;12.93;100.00;101703.13;2088092;28;37331;-75
2022/10/28 00:50:47;;;;;;;13.77;7.30;;;;;;;12.90;100.00;101708.59;2081423;28;35094;-75
2022/10/28 00:52:01;;;;;;;17.38;9.07;;;;;;;12.91;100.00;101720.22;2087548;28;40149;-75
2022/10/28 00:53:10;;;;;;;12.75;6.80;;;;;;;12.86;100.00;101717.63;2088378;28;36928;-75
2022/10/28 00:54:12;;;;;;;15.63;7.50;;;;;;;12.84;100.00;101719.47;2088285;28;35047;-74
2022/10/28 00:55:17;;;;;;;14.80;7.07;;;;;;;12.81;100.00;101714.13;2088948;28;32239;-75
2022/10/28 00:56:19;;;;;;;15.15;7.45;;;;;;;12.79;100.00;101707.91;2087958;28;30730;-75
2022/10/28 00:57:29;;;;;;;13.05;7.65;;;;;;;12.77;100.00;101712.44;2088562;28;20041;-75
2022/10/28 00:58:31;;;;;;;14.68;7.97;;;;;;;12.74;100.00;101707.09;2089142;28;33366;-75
2022/10/28 00:59:38;;;;;;;14.15;8.18;;;;;;;12.71;100.00;101704.50;2087597;28;37320;-73
2022/10/28 01:00:40;;;;;;;9.93;6.57;;;;;;;12.67;100.00;101702.78;2088280;28;37999;-75
2022/10/28 01:01:42;;;;;;;10.07;6.38;;;;;;;12.65;100.00;101709.97;2088185;28;27402;-75
2022/10/28 01:02:47;;;;;;;10.70;6.53;;;;;;;12.63;100.00;101710.00;2088027;28;31782;-74
2022/10/28 01:03:50;;;;;;;14.13;6.82;;;;;;;12.60;100.00;101705.59;2087958;28;35109;-75
2022/10/28 01:04:51;;;;;;;12.35;7.20;;;;;;;12.58;100.00;101710.13;2087857;28;33907;-75
2022/10/28 01:05:54;;;;;;;13.90;6.80;;;;;;;12.54;100.00;101713.78;2088569;28;30969;-75
2022/10/28 01:06:57;;;;;;;11.98;7.32;;;;;;;12.51;100.00;101704.91;2088875;28;29962;-75
2022/10/28 01:08:02;;;;;;;10.50;7.22;;;;;;;12.47;100.00;101714.81;2087629;28;28810;-74
2022/10/28 01:09:03;;;;;;;12.75;6.80;;;;;;;12.45;100.00;101715.72;2088297;28;27282;-74
2022/10/28 01:10:06;;;;;;;10.98;7.07;;;;;;;12.43;100.00;101714.88;2088963;28;35547;-75
2022/10/28 01:11:31;;;;;;;12.55;7.30;;;;;;;12.40;100.00;101711.34;2088485;28;20041;-75
2022/10/28 01:13:16;;;;;;;10.23;6.97;;;;;;;12.34;100.00;101714.13;2088823;28;20815;-75
2022/10/28 01:15:03;;;;;;;12.90;7.60;;;;;;;12.31;100.00;101719.56;2088555;28;31702;-75
2022/10/28 01:16:23;;;;;;;12.02;7.53;;;;;;;12.28;100.00;101718.72;2088867;28;31293;-75
2022/10/28 01:17:49;;;;;;;14.52;7.45;;;;;;;12.25;100.00;101713.41;2088632;28;35431;-75
2022/10/28 01:19:12;;;;;;;13.50;8.43;;;;;;;12.21;100.00;101712.56;2088612;28;38746;-75
2022/10/28 01:20:57;;;;;;;14.32;7.85;;;;;;;12.16;100.00;101704.59;2088718;28;20914;-75
2022/10/28 01:22:09;;;;;;;10.80;6.70;;;;;;;12.13;100.00;101704.66;2088108;28;38472;-74
2022/10/28 01:24:02;;;;;;;13.15;7.35;;;;;;;12.10;100.00;101702.03;2088796;28;32430;-75
2022/10/28 01:25:34;;;;;;;9.63;7.13;;;;;;;12.06;100.00;101711.03;2063119;28;20141;-75
2022/10/28 01:27:03;;;;;;;10.32;6.60;;;;;;;12.03;100.00;101703.03;2088343;28;36486;-75
2022/10/28 01:28:38;;;;;;;13.05;7.78;;;;;;;12.01;100.00;101699.50;2088508;28;40023;-75
2022/10/28 01:29:54;;;;;;;17.95;8.05;;;;;;;11.96;100.00;101701.38;2087510;28;36715;-75
2022/10/28 01:31:26;;;;;;;12.75;7.85;;;;;;;11.94;100.00;101706.75;2093529;28;39100;-75
2022/10/28 01:32:47;;;;;;;14.70;6.72;;;;;;;11.91;100.00;101708.59;2090874;28;33201;-76
2022/10/28 01:34:35;;;;;;;11.27;6.90;;;;;;;11.89;100.00;101699.66;2089200;28;20160;-75
2022/10/28 01:36:02;;;;;;;12.68;7.07;;;;;;;11.88;100.00;101705.91;2088595;28;31466;-75
2022/10/28 01:37:27;;;;;;;12.85;7.63;;;;;;;11.87;100.00;101702.38;2088131;28;35411;-75
2022/10/28 01:39:27;;;;;;;15.05;8.23;;;;;;;11.84;100.00;101700.63;2093993;28;20113;-75
2022/10/28 01:40:40;;;;;;;13.18;7.63;;;;;;;11.84;100.00;101694.34;2051467;28;38277;-74
2022/10/28 01:42:23;;;;;;;11.35;7.45;;;;;;;11.82;100.00;101701.53;2082110;28;30647;-75
2022/10/28 01:44:07;;;;;;;15.88;8.63;;;;;;;11.83;100.00;101696.16;2071886;28;35246;-75
2022/10/28 01:45:28;;;;;;;10.50;7.03;;;;;;;11.82;100.00;101686.31;2087877;28;30202;-75
2022/10/28 01:46:46;;;;;;;18.27;10.30;;;;;;;11.85;100.00;101686.28;2093486;28;34391;-73
2022/10/28 01:47:57;;;;;;;13.98;9.93;;;;;;;11.94;100.00;101673.69;2087650;28;33527;-75
2022/10/28 01:49:08;;;;;;;14.45;9.98;;;;;;;11.94;100.00;101679.91;2089937;28;20026;-75
2022/10/28 01:50:23;;;;;;;;;;;;;;;11.96;100.00;101683.47;2088039;28;39024;-75
2022/10/28 01:51:54;;;;;;;19.30;9.88;;;;;;;11.93;100.00;101672.75;2088063;28;31399;-75
2022/10/28 01:53:02;;;;;;;12.10;8.90;;;;;;;11.93;100.00;101679.94;2081614;28;30268;-75
2022/10/28 01:54:07;;;;;;;15.43;9.15;;;;;;;11.91;100.00;101676.41;2087663;28;36486;-75
2022/10/28 01:55:23;;;;;;;10.15;7.78;;;;;;;11.91;100.00;101676.41;2087521;28;29272;-75
2022/10/28 01:56:32;;;;;;;15.75;9.13;;;;;;;11.90;100.00;101669.22;2087689;28;40355;-75
2022/10/28 01:57:40;;;;;;;10.80;7.38;;;;;;;11.90;100.00;101675.53;2089802;28;31302;-76
2022/10/28 01:58:44;;;;;;;9.90;7.05;;;;;;;11.91;100.00;101671.03;2088002;28;34396;-75
2022/10/28 01:59:48;;;;;;;14.73;8.85;;;;;;;11.90;100.00;101666.53;2089147;28;30518;-75
2022/10/28 02:00:50;;;;;;;14.02;8.90;;;;;;;11.90;100.00;101661.16;2082353;28;38167;-75
2022/10/28 02:01:53;;;;;;;14.32;9.80;;;;;;;11.91;100.00;101660.31;2071980;28;29338;-75
2022/10/28 02:02:55;;;;;;;14.60;9.20;;;;;;;11.93;100.00;101653.97;2078947;28;36379;-75
2022/10/28 02:03:57;;;;;;;19.33;10.43;;;;;;;11.97;100.00;101650.34;2081297;28;20088;-75
2022/10/28 02:05:36;;;;;;;19.00;10.25;;;;;;;12.00;100.00;101654.78;2071577;28;33328;-75
2022/10/28 02:06:41;;;;;;;16.48;9.98;;;;;;;12.05;100.00;101642.16;2066904;28;20916;-75
2022/10/28 02:07:44;;;;;;;15.80;9.30;;;;;;;12.06;100.00;101643.94;2071181;28;33215;-75
2022/10/28 02:09:06;;;;;;;15.75;8.80;;;;;;;12.06;100.00;101637.66;2063975;28;35695;-75
2022/10/28 02:10:22;;;;;;;14.95;9.40;;;;;;;12.09;100.00;101633.13;2066259;28;20034;-74
2022/10/28 02:11:50;;;;;;;14.45;9.13;;;;;;;12.13;100.00;101637.56;2065100;28;33600;-75
2022/10/28 02:12:55;;;;;;;21.92;10.93;;;;;;;12.19;100.00;101634.75;2067619;28;37010;-75
2022/10/28 02:14:15;;;;;;;13.90;9.32;;;;;;;12.20;100.00;101631.16;2075125;28;34870;-74
2022/10/28 02:15:43;;;;;;;15.05;9.25;;;;;;;12.26;100.00;101630.16;2071481;28;29093;-75
2022/10/28 02:17:11;;;;;;;16.65;9.93;;;;;;;12.32;100.00;101634.50;2076327;28;35326;-76
2022/10/28 02:19:14;;;;;;;17.60;9.65;;;;;;;12.29;100.00;101638.16;2075281;28;20120;-75
2022/10/28 02:20:18;;;;;;;18.58;10.23;;;;;;;12.32;100.00;101630.03;2038564;29;35144;-75
2022/10/28 02:21:29;;;;;;;14.75;9.90;;;;;;;12.31;100.00;101630.03;2052613;28;39424;-75
2022/10/28 02:22:48;;;;;;;13.75;9.35;;;;;;;12.31;100.00;101625.59;2072749;28;20042;-75
2022/10/28 02:24:06;;;;;;;18.52;9.82;;;;;;;12.33;100.00;101629.13;2071876;28;39990;-75
2022/10/28 02:25:33;;;;;;;19.90;11.25;;;;;;;12.30;100.00;101629.16;2071846;28;20807;-75
2022/10/28 02:26:41;;;;;;;15.50;9.43;;;;;;;12.32;100.00;101634.50;2071764;28;34898;-75
2022/10/28 02:28:28;;;;;;;12.38;9.10;;;;;;;12.32;100.00;101634.50;2071598;28;20043;-75
2022/10/28 02:29:52;;;;;;;19.27;9.57;;;;;;;12.29;100.00;101631.88;2039012;29;20099;-75
2022/10/28 02:31:09;;;;;;;15.98;9.30;;;;;;;12.29;100.00;101630.09;2066541;28;20150;-74
2022/10/28 02:32:19;;;;;;;13.77;9.52;;;;;;;12.28;100.00;101624.75;2067240;28;33849;-75
2022/10/28 02:33:30;;;;;;;12.90;8.65;;;;;;;12.24;100.00;101631.97;2072010;28;20038;-75
2022/10/28 02:34:39;;;;;;;11.07;7.80;;;;;;;12.22;100.00;101637.38;2076068;28;38376;-75
2022/10/28 02:35:59;;;;;;;12.32;7.55;;;;;;;12.18;100.00;101630.28;2081375;28;34808;-75
2022/10/28 02:37:08;;;;;;;10.73;7.47;;;;;;;12.16;100.00;101628.53;2079902;28;33602;-75
2022/10/28 02:38:19;;;;;;;16.30;9.45;;;;;;;12.14;100.00;101633.94;2079415;28;35638;-75
2022/10/28 02:39:29;;;;;;;14.60;8.38;;;;;;;12.13;100.00;101634.88;2079989;28;38460;-75
2022/10/28 02:40:34;;;;;;;14.23;9.20;;;;;;;12.14;100.00;101628.56;2079407;28;36150;-75
2022/10/28 02:41:47;;;;;;;10.60;8.57;;;;;;;12.14;100.00;101627.69;2079068;28;39105;-75
2022/10/28 02:42:55;;;;;;;12.90;8.38;;;;;;;12.16;100.00;101628.53;2079254;28;31340;-75
2022/10/28 02:44:07;;;;;;;14.88;9.55;;;;;;;12.15;100.00;101627.66;2080062;28;20121;-75
2022/10/28 02:45:18;;;;;;;14.30;9.50;;;;;;;12.18;100.00;101622.22;2079734;28;35955;-75
2022/10/28 02:46:25;;;;;;;15.95;9.93;;;;;;;12.22;100.00;101623.94;2079276;28;31392;-74
2022/10/28 02:47:34;;;;;;;17.23;9.95;;;;;;;12.22;100.00;101613.22;2078963;28;29101;-75
2022/10/28 02:48:53;;;;;;;13.77;9.20;;;;;;;12.20;100.00;101619.50;2081369;28;36439;-75
2022/10/28 02:50:00;;;;;;;14.88;9.52;;;;;;;12.18;100.00;101611.47;2084460;28;37444;-75
2022/10/28 02:51:11;;;;;;;17.10;10.25;;;;;;;12.18;100.00;101608.78;2079691;28;25844;-74
2022/10/28 02:52:15;;;;;;;13.93;8.98;;;;;;;12.20;100.00;101604.31;2073334;28;20411;-75
2022/10/28 02:53:30;;;;;;;14.43;9.77;;;;;;;12.21;100.00;101606.06;2080208;28;36827;-75
2022/10/28 02:54:49;;;;;;;13.70;9.25;;;;;;;12.20;100.00;101601.63;2087715;28;31888;-75
2022/10/28 02:55:56;;;;;;;12.30;9.40;;;;;;;12.18;100.00;101606.09;2079277;28;35957;-75
2022/10/28 02:57:07;;;;;;;15.55;9.18;;;;;;;12.17;100.00;101601.66;2082329;28;37080;-75
2022/10/28 02:58:10;;;;;;;14.88;8.95;;;;;;;12.16;100.00;101613.31;2078948;28;39890;-75
2022/10/28 02:59:12;;;;;;;14.15;8.50;;;;;;;12.15;100.00;101613.34;2080682;28;31998;-75
2022/10/28 03:00:19;;;;;;;11.45;8.05;;;;;;;12.12;100.00;101610.72;2078977;28;34498;-75
2022/10/28 03:01:21;;;;;;;13.52;9.00;;;;;;;12.12;100.00;101610.72;2079772;28;34496;-75
2022/10/28 03:02:23;;;;;;;16.25;8.90;;;;;;;12.10;100.00;101613.44;2079786;28;32190;-75
2022/10/28 03:03:25;;;;;;;18.10;10.25;;;;;;;12.11;100.00;101609.81;2079458;28;33250;-75
2022/10/28 03:04:27;;;;;;;15.20;10.07;;;;;;;12.08;100.00;101619.72;2084446;28;20045;-75
2022/10/28 03:05:31;;;;;;;15.88;9.65;;;;;;;12.06;100.00;101617.09;2088042;28;32292;-75
2022/10/28 03:06:33;;;;;;;12.27;8.82;;;;;;;12.03;100.00;101614.47;2087194;28;38409;-75
2022/10/28 03:07:37;;;;;;;13.45;9.10;;;;;;;12.00;100.00;101623.44;2087110;28;37978;-75
2022/10/28 03:08:40;;;;;;;10.40;8.32;;;;;;;11.97;100.00;101618.16;2087034;28;34046;-75
2022/10/28 03:09:42;;;;;;;13.32;8.10;;;;;;;11.94;100.00;101612.81;2087303;28;32261;-75
2022/10/28 03:10:43;;;;;;;13.68;8.52;;;;;;;11.94;100.00;101617.31;2088062;28;30597;-75
2022/10/28 03:11:45;;;;;;;14.93;8.85;;;;;;;11.91;100.00;101615.56;2088155;28;32932;-75
2022/10/28 03:12:47;;;;;;;15.65;8.45;;;;;;;11.90;100.00;101615.53;2087598;28;39539;-75
2022/10/28 03:13:48;;;;;;;12.10;7.75;;;;;;;11.88;100.00;101620.06;2087729;28;30434;-75
2022/10/28 03:14:51;;;;;;;13.90;8.70;;;;;;;11.88;100.00;101617.38;2089070;28;33453;-75
2022/10/28 03:15:53;;;;;;;15.95;8.85;;;;;;;11.84;100.00;101611.19;2089662;28;28094;-75
2022/10/28 03:16:54;;;;;;;12.65;8.63;;;;;;;11.82;100.00;101613.00;2088607;28;28997;-75
2022/10/28 03:17:56;;;;;;;15.02;8.25;;;;;;;11.80;100.00;101604.97;2089015;28;38878;-75
2022/10/28 03:18:58;;;;;;;13.20;8.07;;;;;;;11.81;100.00;101605.88;2089053;28;34229;-75
2022/10/28 03:20:00;;;;;;;11.88;9.65;;;;;;;11.82;100.00;101604.94;2089488;28;34973;-75
2022/10/28 03:21:02;;;;;;;14.85;9.13;;;;;;;11.82;100.00;101607.63;2089401;28;34395;-75
2022/10/28 03:22:03;;;;;;;14.55;9.23;;;;;;;11.81;100.00;101609.44;2089580;28;31248;-76
2022/10/28 03:23:07;;;;;;;14.88;9.13;;;;;;;11.81;100.00;101606.75;2090412;28;34936;-76
2022/10/28 03:24:09;;;;;;;16.75;9.98;;;;;;;11.80;100.00;101609.47;2081516;28;29865;-76
2022/10/28 03:25:11;;;;;;;21.05;11.10;;;;;;;11.79;100.00;101608.59;2081633;28;30787;-76
2022/10/28 03:26:13;;;;;;;17.38;10.38;;;;;;;11.79;100.00;101613.97;2089377;28;38519;-75
2022/10/28 03:27:15;;;;;;;16.60;10.77;;;;;;;11.79;100.00;101616.63;2089827;28;20029;-75
2022/10/28 03:28:17;;;;;;;15.77;9.40;;;;;;;11.76;100.00;101603.28;2089313;28;33267;-75
2022/10/28 03:29:21;;;;;;;17.80;11.05;;;;;;;11.74;100.00;101607.78;2081004;28;20038;-75
2022/10/28 03:30:23;;;;;;;16.90;10.15;;;;;;;11.72;100.00;101609.59;2081061;28;34044;-75
2022/10/28 03:31:25;;;;;;;11.95;8.88;;;;;;;11.72;100.00;101606.00;2088655;28;39592;-75
2022/10/28 03:32:26;;;;;;;17.38;9.25;;;;;;;11.69;100.00;101608.78;2089122;28;35218;-74
2022/10/28 03:33:28;;;;;;;14.35;9.80;;;;;;;11.67;100.00;101603.44;2088958;28;28248;-75
2022/10/28 03:34:30;;;;;;;13.88;8.68;;;;;;;11.68;100.00;101605.19;2088597;28;40106;-75
2022/10/28 03:35:31;;;;;;;21.95;11.75;;;;;;;11.70;100.00;101607.84;2089322;28;27124;-75
2022/10/28 03:36:33;;;;;;;19.88;10.95;;;;;;;11.74;100.00;101610.47;2088902;28;36838;-75
2022/10/28 03:37:35;;;;;;;19.90;11.02;;;;;;;11.78;100.00;101606.81;2089063;28;30759;-75
2022/10/28 03:38:36;;;;;;;17.23;11.45;;;;;;;11.80;100.00;101604.09;2089147;28;34409;-75
2022/10/28 03:39:38;;;;;;;18.20;11.38;;;;;;;11.80;100.00;101602.28;2088419;28;33555;-75
2022/10/28 03:40:40;;;;;;;14.85;10.30;;;;;;;11.81;100.00;101606.75;2088032;28;36178;-75
2022/10/28 03:41:44;;;;;;;17.55;10.23;;;;;;;11.81;100.00;101600.53;2088652;28;36513;-76
2022/10/28 03:42:48;;;;;;;19.98;10.98;;;;;;;11.82;100.00;101603.16;2088831;28;25541;-75
2022/10/28 03:43:52;;;;;;;16.63;10.65;;;;;;;11.82;100.00;101602.28;2088846;28;34493;-76
2022/10/28 03:44:54;;;;;;;15.73;10.80;;;;;;;11.84;100.00;101605.81;2088856;28;39077;-75
2022/10/28 03:45:55;;;;;;;20.10;11.98;;;;;;;11.85;100.00;101599.53;2090022;28;28082;-75
2022/10/28 03:46:59;;;;;;;24.02;11.68;;;;;;;11.86;100.00;101598.63;2088930;28;36137;-74
2022/10/28 03:48:01;;;;;;;21.80;10.35;;;;;;;11.85;100.00;101596.84;2088926;28;33852;-76
2022/10/28 03:49:03;;;;;;;18.20;10.75;;;;;;;11.86;100.00;101593.25;2089408;28;28321;-75
2022/10/28 03:50:05;;;;;;;15.70;10.57;;;;;;;11.84;100.00;101595.97;2089092;28;36058;-75
2022/10/28 03:51:07;;;;;;;17.08;10.90;;;;;;;11.83;100.00;101598.69;2089114;28;36836;-75
2022/10/28 03:52:09;;;;;;;11.15;8.23;;;;;;;11.79;100.00;101597.84;2088874;28;35795;-75
2022/10/28 03:53:10;;;;;;;17.38;10.07;;;;;;;11.77;100.00;101596.09;2088800;28;38766;-75
2022/10/28 03:54:12;;;;;;;14.35;9.75;;;;;;;11.73;100.00;101592.59;2089776;28;20041;-74
2022/10/28 03:55:14;;;;;;;18.60;10.57;;;;;;;11.73;100.00;101599.75;2089542;28;22837;-75
2022/10/28 03:56:18;;;;;;;17.08;10.82;;;;;;;11.75;100.00;101584.50;2089354;28;34025;-74
2022/10/28 03:57:19;;;;;;;15.60;10.63;;;;;;;11.76;100.00;101592.53;2089368;28;28139;-75
2022/10/28 03:58:22;;;;;;;16.95;10.05;;;;;;;11.77;100.00;101594.31;2088503;28;38812;-75
2022/10/28 03:59:23;;;;;;;13.88;9.63;;;;;;;11.75;100.00;101589.88;2088192;28;38959;-75
2022/10/28 04:00:25;;;;;;;11.57;8.95;;;;;;;11.72;100.00;101590.81;2088524;28;30956;-75
2022/10/28 04:01:27;;;;;;;15.88;9.73;;;;;;;11.71;100.00;101588.16;2088704;28;34107;-75
2022/10/28 04:02:31;;;;;;;13.63;9.27;;;;;;;11.68;100.00;101591.78;2089620;28;20045;-76
2022/10/28 04:03:33;;;;;;;13.48;8.52;;;;;;;11.62;100.00;101590.09;2088960;28;37120;-75
2022/10/28 04:04:35;;;;;;;11.27;8.30;;;;;;;11.56;100.00;101587.53;2089138;28;36250;-75
2022/10/28 04:05:36;;;;;;;14.80;8.40;;;;;;;11.53;100.00;101589.38;2088679;28;32018;-75
2022/10/28 04:06:38;;;;;;;15.02;10.25;;;;;;;11.49;100.00;101579.59;2088001;28;37746;-75
2022/10/28 04:07:40;;;;;;;14.07;8.75;;;;;;;11.43;100.00;101583.25;2089857;28;20050;-75
2022/10/28 04:08:44;;;;;;;11.60;8.48;;;;;;;11.40;100.00;101586.00;2089413;28;28680;-75
2022/10/28 04:09:50;;;;;;;14.23;7.25;;;;;;;11.37;100.00;101576.19;2088966;28;36127;-75
2022/10/28 04:10:51;;;;;;;15.57;9.77;;;;;;;11.35;100.00;101587.88;2089059;28;36827;-72
2022/10/28 04:11:53;;;;;;;12.60;8.95;;;;;;;11.33;100.00;101582.53;2088870;28;29433;-75
2022/10/28 04:13:04;;;;;;;11.20;8.25;;;;;;;11.31;100.00;101573.63;2089042;28;33126;-75
2022/10/28 04:14:06;;;;;;;14.23;9.00;;;;;;;11.26;100.00;101576.38;2089259;28;37116;-75
2022/10/28 04:15:07;;;;;;;13.85;8.80;;;;;;;11.23;100.00;101578.19;2089163;28;31771;-75
2022/10/28 04:16:09;;;;;;;18.92;9.40;;;;;;;11.20;100.00;101580.94;2089133;28;36474;-75
2022/10/28 04:17:11;;;;;;;16.48;9.63;;;;;;;11.17;100.00;101581.88;2089105;28;35917;-75
2022/10/28 04:18:13;;;;;;;19.48;9.88;;;;;;;11.16;100.00;101580.13;2088552;28;39078;-75
2022/10/28 04:19:14;;;;;;;14.00;9.52;;;;;;;11.14;100.00;101576.53;2089129;28;20759;-74
2022/10/28 04:20:16;;;;;;;11.35;8.52;;;;;;;11.12;100.00;101580.16;2088736;28;29433;-75
2022/10/28 04:21:18;;;;;;;14.63;10.02;;;;;;;11.11;100.00;101578.38;2088252;28;37352;-75
2022/10/28 04:22:19;;;;;;;12.10;8.98;;;;;;;11.10;100.00;101579.31;2088657;28;36211;-75
2022/10/28 04:23:21;;;;;;;16.55;10.10;;;;;;;11.11;100.00;101581.06;2088902;28;36963;-74
2022/10/28 04:24:23;;;;;;;19.20;10.93;;;;;;;11.14;100.00;101573.00;2089019;28;34847;-74
2022/10/28 04:25:26;;;;;;;17.15;10.90;;;;;;;11.13;100.00;101579.28;2088128;28;30707;-74
2022/10/28 04:26:30;;;;;;;18.77;11.07;;;;;;;11.14;100.00;101581.03;2088251;28;32774;-74
2022/10/28 04:27:34;;;;;;;18.40;11.80;;;;;;;11.12;100.00;101589.09;2088853;28;37500;-74
2022/10/28 04:28:36;;;;;;;18.35;9.60;;;;;;;11.10;100.00;101580.19;2088709;28;37812;-74
2022/10/28 04:29:37;;;;;;;18.92;9.38;;;;;;;11.11;100.00;101573.94;2088623;28;36825;-74
2022/10/28 04:30:39;;;;;;;13.45;9.02;;;;;;;11.12;100.00;101574.81;2089330;28;31383;-74
2022/10/28 04:31:41;;;;;;;19.10;11.05;;;;;;;11.13;100.00;101574.78;2088634;28;31051;-74
2022/10/28 04:32:43;;;;;;;17.13;10.77;;;;;;;11.13;100.00;101576.59;2089589;28;20042;-74
2022/10/28 04:33:45;;;;;;;17.00;10.00;;;;;;;11.13;100.00;101581.97;2088668;28;32122;-75
2022/10/28 04:34:47;;;;;;;20.38;11.50;;;;;;;11.13;100.00;101581.97;2088862;28;30304;-75
2022/10/28 04:35:48;;;;;;;18.35;11.05;;;;;;;11.11;100.00;101581.97;2089218;28;20045;-75
2022/10/28 04:36:50;;;;;;;14.80;9.57;;;;;;;11.07;100.00;101570.41;2088717;28;30072;-75
2022/10/28 04:37:52;;;;;;;20.00;10.38;;;;;;;11.07;100.00;101575.78;2089050;28;30292;-75
2022/10/28 04:38:56;;;;;;;15.82;10.48;;;;;;;11.08;100.00;101579.34;2088675;28;30251;-75
2022/10/28 04:39:58;;;;;;;17.83;11.18;;;;;;;11.12;100.00;101570.31;2088541;28;38693;-75
2022/10/28 04:40:59;;;;;;;17.52;10.70;;;;;;;11.16;100.00;101571.16;2088755;28;31226;-75
2022/10/28 04:42:04;;;;;;;19.35;11.13;;;;;;;11.19;100.00;101576.50;2088556;28;31010;-75
2022/10/28 04:43:06;;;;;;;17.33;12.10;;;;;;;11.22;100.00;101574.66;2088110;28;33175;-74
2022/10/28 04:44:09;;;;;;;19.67;11.60;;;;;;;11.27;100.00;101566.53;2088815;28;30600;-74
2022/10/28 04:45:11;;;;;;;19.05;10.80;;;;;;;11.29;100.00;101570.09;2088299;28;38407;-75
2022/10/28 04:46:13;;;;;;;15.10;10.52;;;;;;;11.25;100.00;101568.34;2090075;28;37676;-74
2022/10/28 04:47:16;;;;;;;17.83;11.20;;;;;;;11.21;100.00;101571.97;2088242;28;34437;-74
2022/10/28 04:48:18;;;;;;;20.13;10.82;;;;;;;11.16;100.00;101568.47;2088446;28;35042;-74
2022/10/28 04:49:22;;;;;;;21.40;11.32;;;;;;;11.12;100.00;101573.00;2088519;28;37094;-75
2022/10/28 04:50:23;;;;;;;19.65;10.10;;;;;;;11.12;100.00;101566.78;2088447;28;36567;-75
2022/10/28 04:51:25;;;;;;;16.20;10.35;;;;;;;11.10;100.00;101569.47;2088768;28;37064;-74
2022/10/28 04:52:27;;;;;;;15.02;8.63;;;;;;;11.10;100.00;101563.22;2089056;28;35912;-74
2022/10/28 04:53:28;;;;;;;22.45;11.60;;;;;;;11.13;100.00;101560.50;2088650;28;33201;-74
2022/10/28 04:54:30;;;;;;;22.42;9.68;;;;;;;11.11;100.00;101559.63;2088867;28;29709;-74
2022/10/28 04:55:32;;;;;;;14.60;9.00;;;;;;;11.07;100.00;101565.06;2088747;28;31336;-74
2022/10/28 04:56:33;;;;;;;20.90;11.02;;;;;;;11.06;100.00;101567.75;2088179;28;40180;-74
2022/10/28 04:57:35;;;;;;;17.05;11.32;;;;;;;11.05;100.00;101556.16;2088336;28;20030;-74
2022/10/28 04:58:37;;;;;;;17.20;12.13;;;;;;;11.15;100.00;101556.00;2088227;28;33005;-74
2022/10/28 04:59:38;;;;;;;23.92;12.77;;;;;;;11.18;100.00;101564.91;2088288;28;31780;-74
2022/10/28 05:00:40;;;;;;;16.83;11.75;;;;;;;11.20;100.00;101560.38;2088847;28;20042;-74
2022/10/28 05:01:42;;;;;;;20.42;11.95;;;;;;;11.22;100.00;101560.38;2088402;28;40268;-73
2022/10/28 05:02:44;;;;;;;15.18;10.23;;;;;;;11.20;100.00;101559.50;2088686;28;20025;-73
2022/10/28 05:03:49;;;;;;;16.52;11.70;;;;;;;11.17;100.00;101562.22;2081680;28;36394;-74
2022/10/28 05:04:51;;;;;;;16.58;9.95;;;;;;;11.16;100.00;101565.81;2086584;28;30708;-74
2022/10/28 05:05:52;;;;;;;14.82;10.07;;;;;;;11.09;100.00;101565.03;2088747;28;31285;-74
2022/10/28 05:06:54;;;;;;;16.60;11.23;;;;;;;11.04;100.00;101559.72;2088089;28;41882;-74
2022/10/28 05:07:56;;;;;;;16.25;9.88;;;;;;;11.02;100.00;101566.03;2089167;28;20037;-75